createdAt,value
2018-09-22T00:00:29.988Z,18.16
2018-09-22T00:02:59.325Z,18.16
2018-09-22T00:05:28.612Z,18.13
2018-09-22T00:07:57.901Z,18.18
2018-09-22T00:10:27.062Z,18.38
2018-09-22T00:12:56.221Z,18.63
2018-09-22T00:15:25.907Z,18.71
2018-09-22T00:17:55.235Z,18.71
2018-09-22T00:20:25.042Z,18.69
2018-09-22T00:22:54.342Z,18.65
2018-09-22T00:25:23.813Z,18.45
2018-09-22T00:27:53.060Z,18.30
2018-09-22T00:30:24.386Z,18.26
2018-09-22T00:32:53.761Z,18.28
2018-09-22T00:35:23.369Z,18.25
2018-09-22T00:37:52.668Z,18.23
2018-09-22T00:40:24.519Z,18.13
2018-09-22T00:42:53.716Z,17.95
2018-09-22T00:45:23.407Z,17.80
2018-09-22T00:47:52.641Z,17.69
2018-09-22T00:50:24.453Z,17.61
2018-09-22T00:52:53.635Z,17.49
2018-09-22T00:55:23.534Z,17.47
2018-09-22T00:57:52.759Z,17.40
2018-09-22T01:00:22.241Z,17.40
2018-09-22T01:02:51.623Z,17.47
2018-09-22T01:05:22.656Z,17.92
2018-09-22T01:07:51.872Z,18.14
2018-09-22T01:10:22.621Z,18.27
2018-09-22T01:12:51.857Z,18.28
2018-09-22T01:15:21.200Z,18.46
2018-09-22T01:17:50.430Z,18.55
2018-09-22T01:20:34.060Z,18.36
2018-09-22T01:23:03.479Z,18.18
2018-09-22T01:25:32.732Z,18.06
2018-09-22T01:28:02.057Z,17.92
2018-09-22T01:30:31.364Z,17.73
2018-09-22T01:33:00.696Z,17.54
2018-09-22T01:35:29.963Z,17.35
2018-09-22T01:37:59.250Z,17.23
2018-09-22T01:40:28.653Z,17.22
2018-09-22T01:42:57.987Z,17.21
2018-09-22T01:45:27.361Z,17.07
2018-09-22T01:47:56.609Z,17.00
2018-09-22T01:50:26.374Z,16.92
2018-09-22T01:52:55.626Z,16.83
2018-09-22T01:55:25.425Z,16.79
2018-09-22T01:57:54.729Z,16.77
2018-09-22T02:00:24.285Z,16.72
2018-09-22T02:02:53.500Z,16.63
2018-09-22T02:05:23.007Z,16.58
2018-09-22T02:07:52.328Z,16.69
2018-09-22T02:10:21.646Z,16.72
2018-09-22T02:12:50.895Z,16.67
2018-09-22T02:15:20.238Z,16.59
2018-09-22T02:17:49.501Z,16.62
2018-09-22T02:20:20.780Z,16.54
2018-09-22T02:22:50.053Z,16.53
2018-09-22T02:25:19.625Z,16.68
2018-09-22T02:27:48.891Z,16.87
2018-09-22T02:30:20.477Z,16.84
2018-09-22T02:32:49.825Z,16.79
2018-09-22T02:35:21.375Z,16.75
2018-09-22T02:37:50.663Z,16.76
2018-09-22T02:40:21.673Z,16.77
2018-09-22T02:42:51.002Z,16.79
2018-09-22T02:45:20.903Z,16.79
2018-09-22T02:47:50.138Z,16.85
2018-09-22T02:50:21.522Z,16.85
2018-09-22T02:52:51.193Z,16.87
2018-09-22T02:55:20.409Z,17.03
2018-09-22T02:57:49.646Z,17.11
2018-09-22T03:00:20.373Z,17.05
2018-09-22T03:02:49.653Z,17.02
2018-09-22T03:05:20.542Z,16.99
2018-09-22T03:07:49.774Z,16.97
2018-09-22T03:10:20.978Z,17.04
2018-09-22T03:12:50.325Z,17.17
2018-09-22T03:15:20.434Z,17.15
2018-09-22T03:17:49.662Z,17.08
2018-09-22T03:20:20.991Z,17.24
2018-09-22T03:22:50.321Z,17.67
2018-09-22T03:25:20.361Z,17.96
2018-09-22T03:27:49.568Z,17.99
2018-09-22T03:30:20.858Z,17.66
2018-09-22T03:32:50.090Z,17.37
2018-09-22T03:35:21.229Z,17.21
2018-09-22T03:37:50.450Z,17.03
2018-09-22T03:40:21.599Z,16.87
2018-09-22T03:42:50.791Z,16.71
2018-09-22T03:45:20.051Z,16.58
2018-09-22T03:47:49.404Z,16.52
2018-09-22T03:50:21.277Z,16.47
2018-09-22T03:52:50.578Z,16.45
2018-09-22T03:55:22.773Z,16.38
2018-09-22T03:57:52.217Z,16.25
2018-09-22T04:00:24.537Z,16.14
2018-09-22T04:02:53.784Z,16.10
2018-09-22T04:05:23.633Z,16.03
2018-09-22T04:07:52.961Z,16.05
2018-09-22T04:10:24.010Z,16.08
2018-09-22T04:12:53.306Z,16.09
2018-09-22T04:15:22.915Z,16.09
2018-09-22T04:17:52.254Z,16.04
2018-09-22T04:20:21.554Z,16.04
2018-09-22T04:22:50.989Z,16.67
2018-09-22T04:25:20.318Z,17.28
2018-09-22T04:27:49.597Z,17.47
2018-09-22T04:30:20.557Z,17.58
2018-09-22T04:32:49.733Z,17.65
2018-09-22T04:35:20.699Z,17.63
2018-09-22T04:37:49.869Z,17.45
2018-09-22T04:40:21.097Z,17.23
2018-09-22T04:42:50.510Z,17.13
2018-09-22T04:45:20.025Z,17.05
2018-09-22T04:47:49.521Z,16.98
2018-09-22T04:50:20.646Z,16.93
2018-09-22T04:52:49.873Z,16.73
2018-09-22T04:55:19.677Z,16.61
2018-09-22T04:57:48.919Z,16.59
2018-09-22T05:00:20.597Z,16.57
2018-09-22T05:02:49.816Z,16.88
2018-09-22T05:05:21.115Z,17.10
2018-09-22T05:07:50.400Z,16.96
2018-09-22T05:10:21.119Z,16.78
2018-09-22T05:12:50.469Z,16.89
2018-09-22T05:15:20.445Z,17.01
2018-09-22T05:17:50.019Z,17.17
2018-09-22T05:20:21.373Z,17.31
2018-09-22T05:22:50.678Z,17.57
2018-09-22T05:25:27.302Z,17.74
2018-09-22T05:28:02.772Z,17.94
2018-09-22T05:30:33.159Z,18.16
2018-09-22T05:33:02.366Z,18.36
2018-09-22T05:35:32.212Z,18.40
2018-09-22T05:38:01.512Z,18.65
2018-09-22T05:40:33.243Z,18.76
2018-09-22T05:43:02.494Z,18.86
2018-09-22T05:45:33.461Z,18.86
2018-09-22T05:48:02.637Z,18.88
2018-09-22T05:50:31.850Z,19.08
2018-09-22T05:53:01.238Z,19.22
2018-09-22T05:55:32.390Z,19.26
2018-09-22T05:58:01.638Z,19.40
2018-09-22T06:00:34.873Z,19.70
2018-09-22T06:03:04.166Z,20.13
2018-09-22T06:05:33.571Z,20.56
2018-09-22T06:22:25.624Z,22.41
2018-09-22T06:24:55.661Z,22.78
2018-09-22T06:27:25.797Z,23.03
2018-09-22T06:29:54.933Z,23.10
2018-09-22T06:32:24.334Z,23.14
2018-09-22T06:34:53.551Z,23.09
2018-09-22T06:37:31.197Z,22.78
2018-09-22T06:40:00.356Z,22.34
2018-09-22T06:42:29.839Z,22.04
2018-09-22T06:45:00.729Z,22.06
2018-09-22T06:47:30.153Z,21.98
2018-09-22T06:49:59.421Z,22.26
2018-09-22T06:52:29.551Z,22.31
2018-09-22T06:54:59.783Z,22.30
2018-09-22T06:57:29.402Z,22.54
2018-09-22T07:00:06.554Z,22.93
2018-09-22T07:02:35.888Z,22.90
2018-09-22T07:05:06.666Z,23.18
2018-09-22T07:07:37.589Z,23.07
2018-09-22T07:10:07.030Z,23.22
2018-09-22T07:12:38.345Z,23.15
2018-09-22T07:15:07.625Z,23.17
2018-09-22T07:17:37.362Z,23.67
2018-09-22T07:20:06.689Z,23.61
2018-09-22T07:22:40.946Z,23.62
2018-09-22T07:25:20.368Z,23.71
2018-09-22T07:27:49.762Z,24.31
2018-09-22T07:30:23.981Z,24.26
2018-09-22T07:33:05.618Z,24.16
2018-09-22T07:35:35.016Z,24.14
2018-09-22T07:38:04.377Z,24.34
2018-09-22T07:40:34.445Z,23.94
2018-09-22T07:43:03.762Z,23.46
2018-09-22T07:45:33.091Z,23.50
2018-09-22T07:48:02.304Z,23.50
2018-09-22T07:50:31.490Z,23.60
2018-09-22T07:53:00.699Z,23.49
2018-09-22T07:55:29.897Z,23.71
2018-09-22T07:58:00.075Z,24.17
2018-09-22T08:00:30.800Z,24.18
2018-09-22T08:03:00.358Z,24.53
2018-09-22T08:05:29.521Z,25.06
2018-09-22T08:07:59.993Z,25.23
2018-09-22T08:10:30.801Z,25.68
2018-09-22T08:13:00.010Z,25.60
2018-09-22T08:15:29.344Z,24.42
2018-09-22T08:17:58.626Z,24.14
2018-09-22T08:20:28.679Z,24.29
2018-09-22T08:22:58.657Z,24.37
2018-09-22T08:25:28.983Z,24.52
2018-09-22T08:27:58.343Z,24.58
2018-09-22T08:30:27.857Z,25.05
2018-09-22T08:32:57.416Z,25.15
2018-09-22T08:35:26.782Z,25.44
2018-09-22T08:37:56.008Z,25.54
2018-09-22T08:40:25.485Z,25.65
2018-09-22T08:42:55.246Z,25.73
2018-09-22T08:45:25.566Z,26.02
2018-09-22T08:47:55.077Z,26.40
2018-09-22T08:50:26.000Z,26.42
2018-09-22T08:52:55.583Z,26.85
2018-09-22T08:55:25.141Z,26.95
2018-09-22T08:57:54.479Z,27.13
2018-09-22T09:00:24.077Z,27.68
2018-09-22T09:02:53.630Z,28.11
2018-09-22T09:06:04.394Z,28.13
2018-09-22T09:08:33.808Z,28.38
2018-09-22T09:11:03.692Z,28.17
2018-09-22T09:13:32.968Z,28.37
2018-09-22T09:16:02.402Z,28.23
2018-09-22T09:18:32.249Z,28.54
2018-09-22T09:21:01.313Z,28.87
2018-09-22T09:23:31.584Z,28.35
2018-09-22T09:26:00.862Z,28.19
2018-09-22T09:28:29.888Z,27.90
2018-09-22T09:30:59.166Z,28.28
2018-09-22T09:33:28.469Z,28.71
2018-09-22T09:35:57.972Z,28.21
2018-09-22T09:38:28.320Z,28.57
2018-09-22T09:40:57.705Z,28.97
2018-09-22T09:43:27.527Z,29.12
2018-09-22T09:45:56.484Z,29.34
2018-09-22T09:48:26.353Z,29.28
2018-09-22T09:50:55.353Z,29.15
2018-09-22T09:53:24.874Z,28.73
2018-09-22T09:55:54.896Z,28.75
2018-09-22T09:58:24.268Z,28.58
2018-09-22T10:00:53.749Z,28.60
2018-09-22T10:03:23.095Z,28.88
2018-09-22T10:05:52.204Z,29.05
2018-09-22T10:08:21.267Z,29.07
2018-09-22T10:10:50.239Z,28.79
2018-09-22T10:13:19.928Z,29.50
2018-09-22T10:15:48.992Z,29.90
2018-09-22T10:18:19.173Z,30.43
2018-09-22T10:20:49.008Z,30.10
2018-09-22T10:23:18.083Z,30.52
2018-09-22T10:25:47.054Z,29.71
2018-09-22T10:28:16.176Z,29.16
2018-09-22T10:30:45.527Z,28.65
2018-09-22T10:33:14.713Z,28.58
2018-09-22T10:35:43.673Z,28.01
2018-09-22T10:38:12.817Z,28.66
2018-09-22T10:40:41.818Z,28.48
2018-09-22T10:43:10.862Z,28.99
2018-09-22T10:45:39.984Z,29.16
2018-09-22T10:48:09.046Z,29.70
2018-09-22T10:50:38.075Z,29.23
2018-09-22T10:53:07.363Z,29.58
2018-09-22T10:55:36.550Z,29.87
2018-09-22T10:58:05.597Z,29.99
2018-09-22T11:00:34.617Z,30.33
2018-09-22T11:03:03.609Z,30.57
2018-09-22T11:05:33.140Z,30.46
2018-09-22T11:08:02.148Z,30.63
2018-09-22T11:10:31.444Z,31.11
2018-09-22T11:13:02.778Z,30.93
2018-09-22T11:15:41.408Z,31.23
2018-09-22T11:18:10.403Z,31.12
2018-09-22T11:20:39.753Z,31.07
2018-09-22T11:23:08.723Z,31.17
2018-09-22T11:25:37.822Z,31.62
2018-09-22T11:28:07.117Z,31.48
2018-09-22T11:30:36.149Z,31.50
2018-09-22T11:33:05.156Z,31.61
2018-09-22T11:35:34.196Z,31.33
2018-09-22T11:38:03.169Z,31.84
2018-09-22T11:40:32.265Z,32.21
2018-09-22T11:43:01.293Z,32.52
2018-09-22T11:45:30.305Z,33.09
2018-09-22T11:47:59.470Z,32.11
2018-09-22T11:50:28.465Z,31.43
2018-09-22T11:52:57.704Z,30.81
2018-09-22T11:55:27.152Z,30.58
2018-09-22T11:57:56.076Z,30.78
2018-09-22T12:00:25.413Z,31.00
2018-09-22T12:02:54.547Z,30.69
2018-09-22T12:05:26.584Z,31.23
2018-09-22T12:07:55.820Z,30.34
2018-09-22T12:10:25.149Z,30.28
2018-09-22T12:12:54.161Z,30.50
2018-09-22T12:15:23.624Z,30.14
2018-09-22T12:17:52.648Z,29.12
2018-09-22T12:20:22.445Z,29.01
2018-09-22T12:22:51.600Z,29.53
2018-09-22T12:25:21.645Z,30.07
2018-09-22T12:27:50.688Z,30.99
2018-09-22T12:30:23.170Z,32.01
2018-09-22T12:32:52.652Z,32.46
2018-09-22T12:35:21.791Z,33.05
2018-09-22T12:37:50.827Z,32.77
2018-09-22T12:40:23.677Z,32.82
2018-09-22T12:42:53.405Z,32.59
2018-09-22T12:45:30.201Z,31.89
2018-09-22T12:48:01.554Z,32.42
2018-09-22T12:53:57.887Z,31.94
2018-09-22T12:57:09.277Z,31.21
2018-09-22T12:59:38.904Z,30.63
2018-09-22T13:02:07.965Z,30.31
2018-09-22T13:04:37.358Z,29.84
2018-09-22T13:07:06.627Z,30.07
2018-09-22T13:09:35.668Z,30.31
2018-09-22T13:12:05.970Z,30.44
2018-09-22T13:14:35.112Z,30.14
2018-09-22T13:17:04.171Z,30.02
2018-09-22T13:19:33.541Z,30.21
2018-09-22T13:22:02.650Z,30.77
2018-09-22T13:24:31.909Z,30.21
2018-09-22T13:27:01.215Z,29.72
2018-09-22T13:29:30.322Z,29.58
2018-09-22T13:31:59.543Z,30.15
2018-09-22T13:34:28.929Z,30.27
2018-09-22T13:36:58.385Z,30.21
2018-09-22T13:39:27.431Z,29.97
2018-09-22T13:41:56.860Z,29.73
2018-09-22T13:44:26.225Z,29.64
2018-09-22T13:46:55.334Z,29.33
2018-09-22T13:49:25.182Z,29.24
2018-09-22T13:51:55.941Z,29.30
2018-09-22T13:54:26.267Z,29.72
2018-09-22T13:56:55.543Z,29.93
2018-09-22T13:59:24.871Z,29.47
2018-09-22T14:01:54.542Z,29.23
2018-09-22T14:04:24.459Z,28.91
2018-09-22T14:06:53.583Z,28.83
2018-09-22T14:09:22.561Z,28.73
2018-09-22T14:11:52.645Z,28.67
2018-09-22T14:14:21.669Z,28.53
2018-09-22T14:16:51.109Z,28.53
2018-09-22T14:19:21.062Z,28.43
2018-09-22T14:24:43.373Z,28.07
2018-09-22T14:27:13.075Z,28.02
2018-09-22T14:29:42.667Z,28.01
2018-09-22T14:32:12.904Z,28.10
2018-09-22T14:34:42.255Z,28.22
2018-09-22T14:37:11.650Z,28.25
2018-09-22T14:39:41.198Z,28.21
2018-09-22T14:42:10.602Z,28.23
2018-09-22T14:44:39.641Z,28.09
2018-09-22T14:47:09.193Z,27.96
2018-09-22T14:49:39.620Z,27.90
2018-09-22T14:52:08.796Z,27.89
2018-09-22T14:54:38.194Z,27.78
2018-09-22T14:57:07.815Z,27.62
2018-09-22T14:59:36.820Z,27.53
2018-09-22T15:02:06.806Z,27.38
2018-09-22T15:04:36.100Z,27.35
2018-09-22T15:07:05.282Z,27.25
2018-09-22T15:09:34.362Z,27.23
2018-09-22T15:12:03.862Z,27.12
2018-09-22T15:14:33.096Z,27.08
2018-09-22T15:17:02.641Z,27.07
2018-09-22T15:19:31.631Z,27.03
2018-09-22T15:22:00.697Z,26.97
2018-09-22T15:24:29.760Z,26.82
2018-09-22T15:29:51.418Z,26.68
2018-09-22T15:32:20.763Z,26.63
2018-09-22T15:34:49.910Z,26.59
2018-09-22T15:37:18.965Z,26.67
2018-09-22T15:39:49.187Z,26.69
2018-09-22T15:42:18.283Z,26.57
2018-09-22T15:44:50.859Z,26.50
2018-09-22T15:47:20.137Z,26.49
2018-09-22T15:49:49.398Z,26.38
2018-09-22T15:52:18.876Z,26.37
2018-09-22T15:54:48.203Z,26.34
2018-09-22T15:57:17.538Z,26.19
2018-09-22T15:59:48.735Z,26.18
2018-09-22T16:02:18.168Z,26.14
2018-09-22T16:04:47.937Z,26.10
2018-09-22T16:07:17.128Z,26.17
2018-09-22T16:09:49.979Z,26.12
2018-09-22T16:12:19.751Z,26.00
2018-09-22T16:14:50.617Z,25.93
2018-09-22T16:17:20.255Z,25.88
2018-09-22T16:19:49.482Z,25.87
2018-09-22T16:31:18.119Z,25.67
2018-09-22T16:33:47.543Z,25.70
2018-09-22T16:36:16.814Z,25.64
2018-09-22T16:38:46.071Z,25.60
2018-09-22T16:41:15.992Z,25.57
2018-09-22T16:43:45.484Z,25.50
2018-09-22T16:46:14.894Z,25.43
2018-09-22T16:48:44.357Z,25.27
2018-09-22T16:51:14.133Z,25.30
2018-09-22T16:53:43.493Z,25.23
2018-09-22T16:56:13.393Z,25.17
2018-09-22T16:58:42.890Z,25.11
2018-09-22T17:01:13.205Z,25.06
2018-09-22T17:03:43.110Z,25.02
2018-09-22T17:06:12.469Z,24.93
2018-09-22T17:08:42.235Z,24.86
2018-09-22T17:11:13.023Z,24.80
2018-09-22T17:13:42.874Z,24.76
2018-09-22T17:16:15.121Z,24.72
2018-09-22T17:18:44.288Z,24.62
2018-09-22T17:21:13.584Z,24.54
2018-09-22T17:23:43.255Z,24.55
2018-09-22T17:26:12.684Z,24.51
2018-09-22T17:28:43.605Z,24.43
2018-09-22T17:31:13.191Z,24.40
2018-09-22T17:33:44.021Z,24.36
2018-09-22T17:36:13.401Z,24.23
2018-09-22T17:38:43.869Z,23.97
2018-09-22T17:41:13.896Z,23.85
2018-09-22T17:43:44.307Z,23.71
2018-09-22T17:46:15.347Z,23.81
2018-09-22T17:48:44.836Z,23.82
2018-09-22T17:51:14.283Z,23.84
2018-09-22T17:53:44.870Z,23.79
2018-09-22T17:56:16.142Z,23.66
2018-09-22T17:58:45.394Z,23.69
2018-09-22T18:01:14.612Z,23.69
2018-09-22T18:03:44.072Z,23.64
2018-09-22T18:06:13.584Z,23.60
2018-09-22T18:08:42.775Z,23.59
2018-09-22T18:11:13.213Z,23.55
2018-09-22T18:13:42.762Z,23.55
2018-09-22T18:16:12.253Z,23.53
2018-09-22T18:18:43.097Z,23.54
2018-09-22T18:21:12.372Z,23.54
2018-09-22T18:23:41.736Z,23.50
2018-09-22T18:26:11.205Z,23.44
2018-09-22T18:28:40.933Z,23.40
2018-09-22T18:31:10.164Z,23.38
2018-09-22T18:33:46.815Z,23.33
2018-09-22T18:36:16.042Z,23.28
2018-09-22T18:38:45.803Z,23.23
2018-09-22T18:41:15.979Z,23.18
2018-09-22T18:43:45.506Z,23.17
2018-09-22T18:46:14.887Z,23.10
2018-09-22T18:48:47.021Z,22.93
2018-09-22T18:51:16.562Z,22.71
2018-09-22T18:53:47.148Z,22.72
2018-09-22T18:56:16.449Z,22.89
2018-09-22T18:58:45.748Z,23.02
2018-09-22T19:01:15.349Z,23.02
2018-09-22T19:03:44.678Z,23.03
2018-09-22T19:06:13.947Z,22.93
2018-09-22T19:08:43.962Z,22.88
2018-09-22T19:11:15.217Z,22.86
2018-09-22T19:13:51.643Z,22.78
2018-09-22T19:16:28.029Z,22.70
2018-09-22T19:19:05.062Z,22.63
2018-09-22T19:21:39.562Z,22.56
2018-09-22T19:24:13.434Z,22.65
2018-09-22T19:30:20.020Z,22.63
2018-09-22T19:32:56.584Z,22.51
2018-09-22T19:35:29.743Z,22.38
2018-09-22T19:38:34.647Z,22.23
2018-09-22T19:41:08.497Z,22.21
2018-09-22T19:43:48.839Z,22.20
2018-09-22T19:46:28.188Z,22.24
2018-09-22T19:49:02.855Z,22.26
2018-09-22T19:51:36.263Z,22.27
2018-09-22T19:54:07.187Z,22.24
2018-09-22T19:56:36.439Z,22.17
2018-09-22T19:59:05.740Z,22.04
2018-09-22T20:01:35.042Z,21.97
2018-09-22T20:04:04.291Z,21.93
2018-09-22T20:06:33.489Z,21.87
2018-09-22T20:09:02.685Z,21.93
2018-09-22T20:11:31.985Z,22.00
2018-09-22T20:14:01.227Z,21.94
2018-09-22T20:16:31.584Z,21.75
2018-09-22T20:19:01.690Z,21.68
2018-09-22T20:21:30.986Z,21.51
2018-09-22T20:24:00.880Z,21.44
2018-09-22T20:26:30.108Z,21.47
2018-09-22T20:28:59.231Z,21.47
2018-09-22T20:31:28.461Z,21.50
2018-09-22T20:33:57.809Z,21.49
2018-09-22T20:36:27.437Z,21.51
2018-09-22T20:38:56.662Z,21.42
2018-09-22T20:41:26.667Z,21.34
2018-09-22T20:43:55.857Z,21.31
2018-09-22T20:46:25.906Z,21.19
2018-09-22T20:48:55.183Z,21.14
2018-09-22T20:51:24.607Z,21.05
2018-09-22T20:53:54.005Z,21.00
2018-09-22T20:56:23.329Z,20.97
2018-09-22T20:58:52.434Z,20.98
2018-09-22T21:01:21.562Z,20.98
2018-09-22T21:03:50.800Z,20.88
2018-09-22T21:06:19.969Z,20.79
2018-09-22T21:08:49.061Z,20.75
2018-09-22T21:11:18.298Z,20.69
2018-09-22T21:13:47.611Z,20.70
2018-09-22T21:16:16.794Z,20.75
2018-09-22T21:18:46.013Z,20.79
2018-09-22T21:21:15.258Z,20.76
2018-09-22T21:23:44.380Z,20.84
2018-09-22T21:26:13.703Z,20.78
2018-09-22T21:28:42.925Z,20.71
2018-09-22T21:31:12.109Z,20.69
2018-09-22T21:33:41.366Z,20.71
2018-09-22T21:36:10.529Z,20.66
2018-09-22T21:38:39.696Z,20.56
2018-09-22T21:41:09.050Z,20.56
2018-09-22T21:43:38.338Z,20.66
2018-09-22T21:46:07.564Z,20.69
2018-09-22T21:48:36.753Z,20.62
2018-09-22T21:51:06.092Z,20.61
2018-09-22T21:53:35.317Z,20.57
2018-09-22T21:56:04.628Z,20.60
2018-09-22T21:58:33.839Z,20.59
2018-09-22T22:01:03.112Z,20.42
2018-09-22T22:03:32.282Z,20.26
2018-09-22T22:06:01.387Z,20.21
2018-09-22T22:08:30.535Z,20.28
2018-09-22T22:10:59.775Z,20.23
2018-09-22T22:13:29.000Z,20.20
2018-09-22T22:15:58.179Z,20.19
2018-09-22T22:18:27.492Z,20.15
2018-09-22T22:20:56.653Z,20.13
2018-09-22T22:23:26.432Z,20.09
2018-09-22T22:25:55.710Z,20.07
2018-09-22T22:28:25.109Z,20.12
2018-09-22T22:30:54.300Z,20.15
2018-09-22T22:33:23.960Z,20.14
2018-09-22T22:35:53.374Z,20.21
2018-09-22T22:38:22.583Z,20.15
2018-09-22T22:40:51.888Z,20.04
2018-09-22T22:43:21.063Z,19.96
2018-09-22T22:45:50.362Z,19.96
2018-09-22T22:48:19.538Z,20.04
2018-09-22T22:50:48.712Z,20.09
2018-09-22T22:53:17.992Z,20.11
2018-09-22T22:55:47.136Z,20.23
2018-09-22T22:58:16.333Z,20.23
2018-09-22T23:00:45.496Z,20.18
2018-09-22T23:03:14.802Z,20.10
2018-09-22T23:05:44.285Z,20.04
2018-09-22T23:08:13.521Z,19.98
2018-09-22T23:10:42.790Z,19.91
2018-09-22T23:13:12.007Z,20.07
2018-09-22T23:15:41.128Z,20.01
2018-09-22T23:18:10.310Z,19.97
2018-09-22T23:20:39.483Z,19.87
2018-09-22T23:23:08.688Z,19.77
2018-09-22T23:25:37.899Z,19.68
2018-09-22T23:28:07.092Z,19.55
2018-09-22T23:30:36.243Z,19.54
2018-09-22T23:33:05.533Z,19.63
2018-09-22T23:35:34.758Z,19.73
2018-09-22T23:38:03.996Z,19.79
2018-09-22T23:40:33.239Z,19.81
2018-09-22T23:43:02.381Z,19.81
2018-09-22T23:45:31.549Z,19.77
2018-09-22T23:48:00.840Z,19.66
2018-09-22T23:50:30.098Z,19.57
2018-09-22T23:52:59.405Z,19.59
2018-09-22T23:55:28.721Z,19.69
2018-09-22T23:57:58.318Z,19.67
